Time;durP1;ratioP1;P1;durP2;ratioP2;P2;SDS_P1;SDS_P2;PMS_P1;PMS_P2;Temp;Humidity;BMP_temperature;BMP_pressure;BME280_temperature;BME280_humidity;BME280_pressure;Samples;Min_cycle;Max_cycle;Signal;HPM_P1;HPM_P2
2022/11/12 00:00:06;;;;;;;;;;;;;;;;;;5000775;28;19918;-86
2022/11/12 00:02:50;;;;;;;;;;;;;;;;;;4985898;28;19919;-88
2022/11/12 00:05:34;;;;;;;;;;;;;;;;;;4984923;28;19945;-86
2022/11/12 00:08:19;;;;;;;;;;;;;;;;;;5000319;28;19973;-86
2022/11/12 00:11:06;;;;;;;;;;;;;;;;;;4998547;28;19913;-87
2022/11/12 00:13:53;;;;;;;;;;;;;;;;;;4986933;28;19919;-87
2022/11/12 00:16:38;;;;;;;;;;;;;;;;;;4967307;28;19902;-87
2022/11/12 00:19:25;;;;;;;;;;;;;;;;;;5200778;23;19921;-84
2022/11/12 00:22:12;;;;;;;;;;;;;;;;;;5006731;28;19932;-85
2022/11/12 00:24:59;;;;;;;;;;;;;;;;;;5020591;28;19909;-83
2022/11/12 00:27:43;;;;;;;;;;;;;;;;;;5183708;23;19910;-86
2022/11/12 00:30:30;;;;;;;;;;;;;;;;;;5070901;23;19906;-89
2022/11/12 00:35:55;;;;;;;;;;;;;;;;;;5757347;23;19966;-85
2022/11/12 00:38:40;;;;;;;;;;;;;;;;;;4970388;28;19906;-84
2022/11/12 00:41:35;;;;;;;;;;;;;;;;;;4970645;28;19909;-86
2022/11/12 00:44:26;;;;;;;;;;;;;;;;;;4986053;28;19918;-85
2022/11/12 00:47:13;;;;;;;;;;;;;;;;;;4969891;28;19918;-85
2022/11/12 00:50:07;;;;;;;;;;;;;;;;;;4983670;28;20504;-86
2022/11/12 00:52:54;;;;;;;;;;;;;;;;;;4985787;28;19910;-85
2022/11/12 00:55:44;;;;;;;;;;;;;;;;;;5293502;23;19930;-85
2022/11/12 00:58:31;;;;;;;;;;;;;;;;;;4986024;28;19902;-85
2022/11/12 01:01:16;;;;;;;;;;;;;;;;;;4999205;28;19902;-84
2022/11/12 01:04:00;;;;;;;;;;;;;;;;;;4999893;28;19913;-85
2022/11/12 01:06:44;;;;;;;;;;;;;;;;;;5022528;23;19929;-84
2022/11/12 01:09:28;;;;;;;;;;;;;;;;;;5009240;28;19945;-83
2022/11/12 01:12:12;;;;;;;;;;;;;;;;;;4978635;28;20396;-83
2022/11/12 01:14:56;;;;;;;;;;;;;;;;;;5009208;28;19914;-82
2022/11/12 01:17:40;;;;;;;;;;;;;;;;;;4978514;28;19913;-82
2022/11/12 01:20:24;;;;;;;;;;;;;;;;;;5010229;28;19914;-83
2022/11/12 01:23:08;;;;;;;;;;;;;;;;;;5009093;28;19960;-83
2022/11/12 01:25:52;;;;;;;;;;;;;;;;;;4981459;28;19914;-81
2022/11/12 01:28:36;;;;;;;;;;;;;;;;;;4983317;28;19968;-80
2022/11/12 01:31:20;;;;;;;;;;;;;;;;;;4984587;28;19914;-81
2022/11/12 01:34:04;;;;;;;;;;;;;;;;;;5001054;28;19914;-81
2022/11/12 01:36:48;;;;;;;;;;;;;;;;;;4999774;28;20436;-80
2022/11/12 01:39:32;;;;;;;;;;;;;;;;;;4984974;28;19914;-80
2022/11/12 01:42:16;;;;;;;;;;;;;;;;;;5000713;28;19920;-81
2022/11/12 01:45:00;;;;;;;;;;;;;;;;;;4985464;28;19914;-81
2022/11/12 01:47:44;;;;;;;;;;;;;;;;;;4983605;28;20432;-80
2022/11/12 01:50:28;;;;;;;;;;;;;;;;;;4983865;28;19914;-79
2022/11/12 01:53:12;;;;;;;;;;;;;;;;;;5003177;28;19921;-81
2022/11/12 01:55:56;;;;;;;;;;;;;;;;;;5000712;28;20377;-80
2022/11/12 01:58:40;;;;;;;;;;;;;;;;;;4986439;28;19964;-81
2022/11/12 02:01:24;;;;;;;;;;;;;;;;;;5002043;28;19936;-81
2022/11/12 02:04:08;;;;;;;;;;;;;;;;;;4983858;28;19913;-80
2022/11/12 02:06:52;;;;;;;;;;;;;;;;;;4986221;28;19917;-80
2022/11/12 02:09:37;;;;;;;;;;;;;;;;;;4984626;28;19920;-81
2022/11/12 02:15:24;;;;;;;;;;;;;;;;;;4966416;28;19926;-81
2022/11/12 02:18:08;;;;;;;;;;;;;;;;;;4981789;28;20010;-81
2022/11/12 02:20:54;;;;;;;;;;;;;;;;;;4966564;28;19914;-81
2022/11/12 02:23:38;;;;;;;;;;;;;;;;;;4980197;28;19914;-81
2022/11/12 02:26:22;;;;;;;;;;;;;;;;;;4949636;28;19919;-81
2022/11/12 02:29:06;;;;;;;;;;;;;;;;;;4965327;28;19953;-81
2022/11/12 02:31:51;;;;;;;;;;;;;;;;;;4967579;28;19914;-81
2022/11/12 02:34:35;;;;;;;;;;;;;;;;;;4981661;28;19997;-81
2022/11/12 02:37:19;;;;;;;;;;;;;;;;;;4981939;28;19957;-81
2022/11/12 02:40:02;;;;;;;;;;;;;;;;;;4967414;28;19920;-80
2022/11/12 02:42:47;;;;;;;;;;;;;;;;;;4963643;28;19914;-80
2022/11/12 02:45:31;;;;;;;;;;;;;;;;;;4980578;28;19914;-81
2022/11/12 02:48:15;;;;;;;;;;;;;;;;;;4963770;28;20404;-80
2022/11/12 02:50:59;;;;;;;;;;;;;;;;;;4979068;28;19914;-82
2022/11/12 02:53:42;;;;;;;;;;;;;;;;;;4982776;28;20053;-81
2022/11/12 02:56:26;;;;;;;;;;;;;;;;;;4981916;28;20076;-81
2022/11/12 02:59:10;;;;;;;;;;;;;;;;;;4982733;28;19925;-80
2022/11/12 03:01:54;;;;;;;;;;;;;;;;;;4981663;28;19921;-81
2022/11/12 03:04:38;;;;;;;;;;;;;;;;;;4985979;28;19918;-81
2022/11/12 03:07:22;;;;;;;;;;;;;;;;;;5002948;28;19949;-81
2022/11/12 03:10:06;;;;;;;;;;;;;;;;;;4986861;28;19920;-81
2022/11/12 03:12:50;;;;;;;;;;;;;;;;;;5003314;28;19945;-81
2022/11/12 03:15:34;;;;;;;;;;;;;;;;;;5002132;28;19914;-81
2022/11/12 03:18:18;;;;;;;;;;;;;;;;;;4984599;28;20361;-80
2022/11/12 03:21:02;;;;;;;;;;;;;;;;;;4964227;28;20382;-81
2022/11/12 03:23:46;;;;;;;;;;;;;;;;;;4982180;28;19936;-82
2022/11/12 03:26:30;;;;;;;;;;;;;;;;;;4967613;28;19918;-81
2022/11/12 03:29:14;;;;;;;;;;;;;;;;;;4964582;28;20266;-80
2022/11/12 03:31:58;;;;;;;;;;;;;;;;;;4981908;28;19968;-80
2022/11/12 03:34:42;;;;;;;;;;;;;;;;;;4988931;28;20007;-80
2022/11/12 03:37:26;;;;;;;;;;;;;;;;;;4969843;28;20009;-81
2022/11/12 03:40:10;;;;;;;;;;;;;;;;;;4970397;28;19914;-81
2022/11/12 03:42:54;;;;;;;;;;;;;;;;;;5001086;28;20378;-80
2022/11/12 03:45:38;;;;;;;;;;;;;;;;;;4983347;28;20432;-82
2022/11/12 03:48:22;;;;;;;;;;;;;;;;;;5000472;28;19936;-82
2022/11/12 03:51:06;;;;;;;;;;;;;;;;;;4990552;28;19914;-81
2022/11/12 03:53:50;;;;;;;;;;;;;;;;;;4966394;28;19921;-81
2022/11/12 03:56:34;;;;;;;;;;;;;;;;;;4981712;28;19914;-82
2022/11/12 03:59:18;;;;;;;;;;;;;;;;;;4964581;28;19918;-81
2022/11/12 04:02:02;;;;;;;;;;;;;;;;;;4966250;28;20348;-82
2022/11/12 04:10:52;;;;;;;;;;;;;;;;;;4958888;28;19922;-82
2022/11/12 04:13:37;;;;;;;;;;;;;;;;;;4961051;28;19956;-82
2022/11/12 04:22:27;;;;;;;;;;;;;;;;;;4975905;28;19977;-81
2022/11/12 04:28:14;;;;;;;;;;;;;;;;;;4979155;28;20390;-81
2022/11/12 04:30:58;;;;;;;;;;;;;;;;;;4964556;28;19957;-81
2022/11/12 04:33:42;;;;;;;;;;;;;;;;;;4980292;28;19914;-81
2022/11/12 04:36:25;;;;;;;;;;;;;;;;;;4965048;28;19914;-81
2022/11/12 04:39:10;;;;;;;;;;;;;;;;;;4961061;28;20351;-81
2022/11/12 04:45:03;;;;;;;;;;;;;;;;;;4978647;28;19914;-80
2022/11/12 04:47:47;;;;;;;;;;;;;;;;;;4960329;28;20393;-81
2022/11/12 04:50:31;;;;;;;;;;;;;;;;;;4964446;28;19996;-80
2022/11/12 04:53:15;;;;;;;;;;;;;;;;;;4960831;28;19914;-81
2022/11/12 04:56:00;;;;;;;;;;;;;;;;;;4978039;28;19914;-81
2022/11/12 04:58:44;;;;;;;;;;;;;;;;;;4977453;28;20001;-79
2022/11/12 05:01:27;;;;;;;;;;;;;;;;;;4976408;28;20465;-81
2022/11/12 05:04:11;;;;;;;;;;;;;;;;;;4975273;28;19914;-81
2022/11/12 05:06:55;;;;;;;;;;;;;;;;;;4974551;28;19925;-81
2022/11/12 05:09:39;;;;;;;;;;;;;;;;;;4943812;28;20468;-81
2022/11/12 05:12:23;;;;;;;;;;;;;;;;;;4974525;28;19937;-82
2022/11/12 05:15:07;;;;;;;;;;;;;;;;;;4968026;28;20052;-82
2022/11/12 05:17:51;;;;;;;;;;;;;;;;;;4994806;28;19914;-81
2022/11/12 05:20:35;;;;;;;;;;;;;;;;;;4981220;28;19965;-80
2022/11/12 05:23:19;;;;;;;;;;;;;;;;;;4996711;28;19921;-80
2022/11/12 05:26:05;;;;;;;;;;;;;;;;;;4981404;28;19922;-80
2022/11/12 05:28:50;;;;;;;;;;;;;;;;;;4997105;28;19914;-81
2022/11/12 05:31:33;;;;;;;;;;;;;;;;;;4996009;28;20365;-81
2022/11/12 05:34:17;;;;;;;;;;;;;;;;;;4997493;28;20381;-81
2022/11/12 05:37:01;;;;;;;;;;;;;;;;;;4967338;28;19984;-81
2022/11/12 05:39:45;;;;;;;;;;;;;;;;;;4980243;28;19914;-81
2022/11/12 05:42:29;;;;;;;;;;;;;;;;;;4997824;28;19937;-82
2022/11/12 05:45:13;;;;;;;;;;;;;;;;;;4998473;28;19914;-81
2022/11/12 05:47:57;;;;;;;;;;;;;;;;;;4980604;28;20003;-81
2022/11/12 05:50:41;;;;;;;;;;;;;;;;;;4949427;28;19918;-81
2022/11/12 05:53:25;;;;;;;;;;;;;;;;;;4949566;28;19922;-80
2022/11/12 05:56:09;;;;;;;;;;;;;;;;;;4964363;28;19915;-81
2022/11/12 05:58:53;;;;;;;;;;;;;;;;;;4968461;28;20390;-81
2022/11/12 06:01:42;;;;;;;;;;;;;;;;;;4985111;28;19922;-81
2022/11/12 06:04:26;;;;;;;;;;;;;;;;;;4950862;28;19914;-80
2022/11/12 06:07:10;;;;;;;;;;;;;;;;;;4975115;28;20411;-81
2022/11/12 06:09:54;;;;;;;;;;;;;;;;;;5000221;28;20254;-82
2022/11/12 06:12:38;;;;;;;;;;;;;;;;;;5000949;28;19914;-80
2022/11/12 06:15:25;;;;;;;;;;;;;;;;;;4985021;28;20384;-81
2022/11/12 06:18:09;;;;;;;;;;;;;;;;;;4987131;28;20391;-81
2022/11/12 06:23:57;;;;;;;;;;;;;;;;;;4984150;28;19922;-81
2022/11/12 06:26:41;;;;;;;;;;;;;;;;;;5003675;28;19918;-80
2022/11/12 06:29:25;;;;;;;;;;;;;;;;;;4977466;28;19917;-81
2022/11/12 06:32:10;;;;;;;;;;;;;;;;;;5004531;28;19993;-79
2022/11/12 06:34:54;;;;;;;;;;;;;;;;;;5004282;28;20001;-81
2022/11/12 06:37:38;;;;;;;;;;;;;;;;;;4973967;28;20389;-80
2022/11/12 06:40:22;;;;;;;;;;;;;;;;;;5004693;28;19973;-79
2022/11/12 06:43:05;;;;;;;;;;;;;;;;;;4985448;28;19914;-80
2022/11/12 06:45:49;;;;;;;;;;;;;;;;;;4969963;28;20374;-80
2022/11/12 06:48:34;;;;;;;;;;;;;;;;;;4968689;28;19990;-81
2022/11/12 06:51:18;;;;;;;;;;;;;;;;;;4982999;28;20415;-81
2022/11/12 06:54:02;;;;;;;;;;;;;;;;;;4980527;28;19920;-79
2022/11/12 06:56:46;;;;;;;;;;;;;;;;;;4965209;28;19918;-81
2022/11/12 06:59:30;;;;;;;;;;;;;;;;;;4972240;28;20404;-81
2022/11/12 07:02:14;;;;;;;;;;;;;;;;;;4982224;28;19939;-81
2022/11/12 07:04:58;;;;;;;;;;;;;;;;;;4997480;28;20460;-80
2022/11/12 07:07:42;;;;;;;;;;;;;;;;;;5046490;23;19926;-90
2022/11/12 07:10:26;;;;;;;;;;;;;;;;;;4982135;28;19926;-90
2022/11/12 07:13:11;;;;;;;;;;;;;;;;;;5010095;28;19938;-91
2022/11/12 07:15:55;;;;;;;;;;;;;;;;;;4972654;28;19918;-91
2022/11/12 07:18:39;;;;;;;;;;;;;;;;;;4972642;28;19924;-90
2022/11/12 07:21:24;;;;;;;;;;;;;;;;;;4971768;28;19914;-92
2022/11/12 07:24:08;;;;;;;;;;;;;;;;;;4972264;28;19914;-90
2022/11/12 07:26:52;;;;;;;;;;;;;;;;;;4967474;28;19918;-91
2022/11/12 07:29:36;;;;;;;;;;;;;;;;;;4952118;28;19921;-90
2022/11/12 07:32:23;;;;;;;;;;;;;;;;;;4963112;28;20328;-92
2022/11/12 07:35:07;;;;;;;;;;;;;;;;;;4962036;28;19925;-91
2022/11/12 07:37:52;;;;;;;;;;;;;;;;;;4950341;28;19914;-91
2022/11/12 07:40:36;;;;;;;;;;;;;;;;;;4968191;28;20362;-91
2022/11/12 07:43:20;;;;;;;;;;;;;;;;;;4981028;28;19921;-91
2022/11/12 07:46:04;;;;;;;;;;;;;;;;;;4963514;28;19914;-89
2022/11/12 07:48:48;;;;;;;;;;;;;;;;;;4953182;28;19918;-91
2022/11/12 07:51:33;;;;;;;;;;;;;;;;;;4984918;28;19920;-91
2022/11/12 07:54:17;;;;;;;;;;;;;;;;;;4986780;28;20016;-92
2022/11/12 07:57:01;;;;;;;;;;;;;;;;;;4974546;28;19914;-91
2022/11/12 07:59:46;;;;;;;;;;;;;;;;;;4973288;28;20023;-91
2022/11/12 08:02:32;;;;;;;;;;;;;;;;;;4971025;28;19914;-92
2022/11/12 08:05:17;;;;;;;;;;;;;;;;;;4972553;28;19918;-91
2022/11/12 08:08:01;;;;;;;;;;;;;;;;;;4991167;28;20029;-89
2022/11/12 08:10:46;;;;;;;;;;;;;;;;;;4980542;28;19953;-89
2022/11/12 08:13:30;;;;;;;;;;;;;;;;;;4976022;28;19914;-90
2022/11/12 08:16:14;;;;;;;;;;;;;;;;;;4975744;28;19921;-90
2022/11/12 08:18:58;;;;;;;;;;;;;;;;;;4977080;28;20273;-90
2022/11/12 08:21:44;;;;;;;;;;;;;;;;;;4988220;28;19953;-90
2022/11/12 08:24:28;;;;;;;;;;;;;;;;;;5227618;23;19934;-88
2022/11/12 08:27:12;;;;;;;;;;;;;;;;;;4972263;29;19982;-89
2022/11/12 08:30:05;;;;;;;;;;;;;;;;;;5123809;23;19926;-90
2022/11/12 08:32:48;;;;;;;;;;;;;;;;;;5423354;23;19937;-88
2022/11/12 08:35:42;;;;;;;;;;;;;;;;;;5004373;23;19957;-90
2022/11/12 08:38:26;;;;;;;;;;;;;;;;;;4988350;28;19925;-91
2022/11/12 08:41:10;;;;;;;;;;;;;;;;;;4990473;28;19945;-91
2022/11/12 08:43:57;;;;;;;;;;;;;;;;;;4988911;28;19915;-91
2022/11/12 08:46:49;;;;;;;;;;;;;;;;;;4986002;28;19928;-89
2022/11/12 08:49:33;;;;;;;;;;;;;;;;;;4975197;28;19915;-91
2022/11/12 08:52:17;;;;;;;;;;;;;;;;;;4973915;28;19914;-88
2022/11/12 08:55:01;;;;;;;;;;;;;;;;;;4967795;28;19919;-91
2022/11/12 08:57:46;;;;;;;;;;;;;;;;;;4982452;28;19918;-88
2022/11/12 09:00:34;;;;;;;;;;;;;;;;;;5021652;23;19930;-89
2022/11/12 09:03:18;;;;;;;;;;;;;;;;;;5045060;23;19922;-88
2022/11/12 09:06:15;;;;;;;;;;;;;;;;;;5201456;23;19929;-86
2022/11/12 09:09:02;;;;;;;;;;;;;;;;;;4991302;28;19941;-87
2022/11/12 09:11:46;;;;;;;;;;;;;;;;;;4989567;28;19988;-92
2022/11/12 09:14:31;;;;;;;;;;;;;;;;;;4976245;28;20000;-90
2022/11/12 09:17:25;;;;;;;;;;;;;;;;;;5009322;28;19992;-90
2022/11/12 09:20:09;;;;;;;;;;;;;;;;;;4981117;28;19937;-91
2022/11/12 09:22:53;;;;;;;;;;;;;;;;;;4982150;28;19937;-89
2022/11/12 09:25:40;;;;;;;;;;;;;;;;;;4984060;28;19966;-90
2022/11/12 09:28:28;;;;;;;;;;;;;;;;;;4982541;28;19921;-91
2022/11/12 09:31:17;;;;;;;;;;;;;;;;;;4977763;28;19985;-91
2022/11/12 09:34:04;;;;;;;;;;;;;;;;;;4964804;28;20052;-91
2022/11/12 09:36:48;;;;;;;;;;;;;;;;;;4962222;28;19914;-90
2022/11/12 09:39:35;;;;;;;;;;;;;;;;;;4953335;28;19933;-91
2022/11/12 09:42:19;;;;;;;;;;;;;;;;;;4955474;28;19918;-91
2022/11/12 09:45:03;;;;;;;;;;;;;;;;;;4971203;28;19914;-90
2022/11/12 09:47:50;;;;;;;;;;;;;;;;;;5001527;28;19922;-90
2022/11/12 09:50:39;;;;;;;;;;;;;;;;;;4990947;28;19949;-91
2022/11/12 09:53:24;;;;;;;;;;;;;;;;;;4993855;28;19914;-91
2022/11/12 09:56:08;;;;;;;;;;;;;;;;;;4991548;28;19937;-89
2022/11/12 09:59:02;;;;;;;;;;;;;;;;;;;;;
2022/11/12 10:01:52;;;;;;;;;;;;;;;;;;4988454;28;19949;-90
2022/11/12 10:04:36;;;;;;;;;;;;;;;;;;4961889;28;19962;-89
2022/11/12 10:07:28;;;;;;;;;;;;;;;;;;4956517;28;19918;-89
2022/11/12 10:10:17;;;;;;;;;;;;;;;;;;4959607;28;19938;-91
2022/11/12 10:13:04;;;;;;;;;;;;;;;;;;4951295;28;19922;-90
2022/11/12 10:18:52;;;;;;;;;;;;;;;;;;4975151;28;19920;-88
2022/11/12 10:21:36;;;;;;;;;;;;;;;;;;4975198;28;19941;-90
2022/11/12 10:24:20;;;;;;;;;;;;;;;;;;4948517;28;19925;-87
2022/11/12 10:27:04;;;;;;;;;;;;;;;;;;4953427;28;19945;-88
2022/11/12 10:29:48;;;;;;;;;;;;;;;;;;4967010;28;19914;-87
2022/11/12 10:32:33;;;;;;;;;;;;;;;;;;4954707;28;19969;-89
2022/11/12 10:35:17;;;;;;;;;;;;;;;;;;4978730;28;19955;-88
2022/11/12 10:38:01;;;;;;;;;;;;;;;;;;4969361;28;19914;-87
2022/11/12 10:40:45;;;;;;;;;;;;;;;;;;4988689;28;19920;-88
2022/11/12 10:43:29;;;;;;;;;;;;;;;;;;4970224;28;19918;-87
2022/11/12 10:46:14;;;;;;;;;;;;;;;;;;4988826;28;19960;-87
2022/11/12 10:48:58;;;;;;;;;;;;;;;;;;4972742;28;19918;-87
2022/11/12 10:51:42;;;;;;;;;;;;;;;;;;4992849;28;19922;-87
2022/11/12 10:54:33;;;;;;;;;;;;;;;;;;4991839;28;19977;-88
2022/11/12 10:57:20;;;;;;;;;;;;;;;;;;5010015;28;19914;-86
2022/11/12 11:00:05;;;;;;;;;;;;;;;;;;4980011;28;19914;-88
2022/11/12 11:02:49;;;;;;;;;;;;;;;;;;4979887;28;19914;-87
2022/11/12 11:05:34;;;;;;;;;;;;;;;;;;4994299;28;19917;-88
2022/11/12 11:08:27;;;;;;;;;;;;;;;;;;4970265;28;19949;-87
2022/11/12 11:11:11;;;;;;;;;;;;;;;;;;4960864;28;19914;-86
2022/11/12 11:13:56;;;;;;;;;;;;;;;;;;4963628;28;19914;-88
2022/11/12 11:16:40;;;;;;;;;;;;;;;;;;4965378;28;19982;-87
2022/11/12 11:19:24;;;;;;;;;;;;;;;;;;4977055;28;19914;-87
2022/11/12 11:22:09;;;;;;;;;;;;;;;;;;4978466;28;19957;-89
2022/11/12 11:24:53;;;;;;;;;;;;;;;;;;4996575;28;19909;-87
2022/11/12 11:27:41;;;;;;;;;;;;;;;;;;4999651;28;20013;-88
2022/11/12 11:30:30;;;;;;;;;;;;;;;;;;4985446;28;19924;-88
2022/11/12 11:33:16;;;;;;;;;;;;;;;;;;4985655;28;20021;-88
2022/11/12 11:36:01;;;;;;;;;;;;;;;;;;4999350;28;19925;-86
2022/11/12 11:38:45;;;;;;;;;;;;;;;;;;4981655;28;19921;-85
2022/11/12 11:41:44;;;;;;;;;;;;;;;;;;4982124;28;20040;-89
2022/11/12 11:44:28;;;;;;;;;;;;;;;;;;4995403;28;19913;-87
2022/11/12 11:47:13;;;;;;;;;;;;;;;;;;4996929;28;19973;-87
2022/11/12 11:50:13;;;;;;;;;;;;;;;;;;;;;
2022/11/12 11:53:21;;;;;;;;;;;;;;;;;;4953600;29;20037;-89
2022/11/12 11:56:05;;;;;;;;;;;;;;;;;;4938713;29;19902;-87
2022/11/12 11:58:50;;;;;;;;;;;;;;;;;;4966370;29;19946;-88
2022/11/12 12:01:41;;;;;;;;;;;;;;;;;;4955736;29;20058;-87
2022/11/12 12:04:26;;;;;;;;;;;;;;;;;;4951960;29;20425;-87
2022/11/12 12:07:10;;;;;;;;;;;;;;;;;;4936565;29;19922;-88
2022/11/12 12:09:56;;;;;;;;;;;;;;;;;;4936048;29;19922;-90
2022/11/12 12:12:41;;;;;;;;;;;;;;;;;;4938190;29;20166;-88
2022/11/12 12:15:31;;;;;;;;;;;;;;;;;;4940430;29;19921;-87
2022/11/12 12:18:25;;;;;;;;;;;;;;;;;;;;;
2022/11/12 12:21:09;;;;;;;;;;;;;;;;;;4931947;29;19915;-90
2022/11/12 12:23:54;;;;;;;;;;;;;;;;;;4981705;28;20008;-88
2022/11/12 12:26:38;;;;;;;;;;;;;;;;;;4968878;28;20298;-86
2022/11/12 12:29:22;;;;;;;;;;;;;;;;;;4998317;28;20430;-88
2022/11/12 12:32:06;;;;;;;;;;;;;;;;;;4981322;28;19964;-88
2022/11/12 12:34:50;;;;;;;;;;;;;;;;;;4980679;28;20008;-88
2022/11/12 12:37:34;;;;;;;;;;;;;;;;;;4996854;28;20432;-87
2022/11/12 12:40:19;;;;;;;;;;;;;;;;;;4966152;28;19957;-86
2022/11/12 12:43:02;;;;;;;;;;;;;;;;;;4996729;28;19925;-87
2022/11/12 12:45:46;;;;;;;;;;;;;;;;;;4979665;28;19914;-87
2022/11/12 12:48:31;;;;;;;;;;;;;;;;;;4997577;28;19925;-89
2022/11/12 12:51:14;;;;;;;;;;;;;;;;;;4980057;28;20284;-88
2022/11/12 12:53:59;;;;;;;;;;;;;;;;;;4996521;28;19914;-87
2022/11/12 12:56:42;;;;;;;;;;;;;;;;;;4980419;28;19917;-87
2022/11/12 12:59:55;;;;;;;;;;;;;;;;;;;;;
2022/11/12 13:02:34;;;;;;;;;;;;;;;;;;4976562;28;19954;-77
2022/11/12 13:05:18;;;;;;;;;;;;;;;;;;4974525;28;19935;-78
2022/11/12 13:08:02;;;;;;;;;;;;;;;;;;4973999;28;19953;-79
2022/11/12 13:10:52;;;;;;;;;;;;;;;;;;4959346;28;19920;-77
2022/11/12 13:13:36;;;;;;;;;;;;;;;;;;4942906;28;19914;-76
2022/11/12 13:16:20;;;;;;;;;;;;;;;;;;4956899;28;19914;-83
2022/11/12 13:19:04;;;;;;;;;;;;;;;;;;4971263;28;19914;-80
2022/11/12 13:21:48;;;;;;;;;;;;;;;;;;4993405;28;19914;-78
2022/11/12 13:24:32;;;;;;;;;;;;;;;;;;4975581;28;20328;-78
2022/11/12 13:27:16;;;;;;;;;;;;;;;;;;4961945;28;20448;-78
2022/11/12 13:30:00;;;;;;;;;;;;;;;;;;4962078;28;19914;-76
2022/11/12 13:32:44;;;;;;;;;;;;;;;;;;4993007;28;19948;-78
2022/11/12 13:35:28;;;;;;;;;;;;;;;;;;4992642;28;20352;-77
2022/11/12 13:38:15;;;;;;;;;;;;;;;;;;4992875;28;19925;-77
2022/11/12 13:40:59;;;;;;;;;;;;;;;;;;4961956;28;19921;-79
2022/11/12 13:43:46;;;;;;;;;;;;;;;;;;4992807;28;20310;-77
2022/11/12 13:46:29;;;;;;;;;;;;;;;;;;4989822;28;19980;-78
2022/11/12 13:49:13;;;;;;;;;;;;;;;;;;4989200;28;19968;-75
2022/11/12 13:51:57;;;;;;;;;;;;;;;;;;4978141;28;19960;-77
2022/11/12 13:54:41;;;;;;;;;;;;;;;;;;4992801;28;19920;-77
2022/11/12 13:57:26;;;;;;;;;;;;;;;;;;4975143;28;19921;-77
2022/11/12 14:00:10;;;;;;;;;;;;;;;;;;4975711;28;19953;-77
2022/11/12 14:02:54;;;;;;;;;;;;;;;;;;4992615;28;19914;-76
2022/11/12 14:05:38;;;;;;;;;;;;;;;;;;4991409;28;20394;-78
2022/11/12 14:08:22;;;;;;;;;;;;;;;;;;4980332;28;19952;-77
2022/11/12 14:11:06;;;;;;;;;;;;;;;;;;4968981;28;19914;-78
2022/11/12 14:13:50;;;;;;;;;;;;;;;;;;4966812;28;19964;-76
2022/11/12 14:16:34;;;;;;;;;;;;;;;;;;4979930;28;19914;-78
2022/11/12 14:19:18;;;;;;;;;;;;;;;;;;4955873;28;19914;-77
2022/11/12 14:22:02;;;;;;;;;;;;;;;;;;4980110;28;19914;-75
2022/11/12 14:24:47;;;;;;;;;;;;;;;;;;4990604;28;20428;-76
2022/11/12 14:27:30;;;;;;;;;;;;;;;;;;4983813;28;20009;-76
2022/11/12 14:30:14;;;;;;;;;;;;;;;;;;4962031;28;20009;-77
2022/11/12 14:32:59;;;;;;;;;;;;;;;;;;4961889;28;19918;-75
2022/11/12 14:35:43;;;;;;;;;;;;;;;;;;4982432;28;19917;-77
2022/11/12 14:38:27;;;;;;;;;;;;;;;;;;4969562;28;19952;-88
2022/11/12 14:41:13;;;;;;;;;;;;;;;;;;4967747;28;19928;-86
2022/11/12 14:43:57;;;;;;;;;;;;;;;;;;5002106;28;19914;-89
2022/11/12 14:46:41;;;;;;;;;;;;;;;;;;4992186;28;19920;-88
2022/11/12 14:49:25;;;;;;;;;;;;;;;;;;4988837;28;19945;-88
2022/11/12 14:52:09;;;;;;;;;;;;;;;;;;4974463;28;19914;-89
2022/11/12 14:54:54;;;;;;;;;;;;;;;;;;4977612;28;19914;-89
2022/11/12 14:57:38;;;;;;;;;;;;;;;;;;4981908;28;19914;-89
2022/11/12 15:00:22;;;;;;;;;;;;;;;;;;5005404;28;19920;-90
2022/11/12 15:03:06;;;;;;;;;;;;;;;;;;4965525;28;19914;-87
2022/11/12 15:05:50;;;;;;;;;;;;;;;;;;4993501;28;19934;-88
2022/11/12 15:08:34;;;;;;;;;;;;;;;;;;4964012;28;19965;-91
2022/11/12 15:11:18;;;;;;;;;;;;;;;;;;4969518;28;19936;-90
2022/11/12 15:14:03;;;;;;;;;;;;;;;;;;4970587;28;19918;-88
2022/11/12 15:16:47;;;;;;;;;;;;;;;;;;4995533;28;19975;-88
2022/11/12 15:19:31;;;;;;;;;;;;;;;;;;4970493;28;20238;-89
2022/11/12 15:22:16;;;;;;;;;;;;;;;;;;4958292;28;19914;-87
2022/11/12 15:25:00;;;;;;;;;;;;;;;;;;4982060;28;19940;-88
2022/11/12 15:27:44;;;;;;;;;;;;;;;;;;4959690;28;19922;-88
2022/11/12 15:30:28;;;;;;;;;;;;;;;;;;4979317;28;19921;-88
2022/11/12 15:33:13;;;;;;;;;;;;;;;;;;4979391;28;19917;-91
2022/11/12 15:35:57;;;;;;;;;;;;;;;;;;4969439;28;20374;-88
2022/11/12 15:38:41;;;;;;;;;;;;;;;;;;4994663;28;20004;-89
2022/11/12 15:41:25;;;;;;;;;;;;;;;;;;4971098;28;20317;-86
2022/11/12 15:44:09;;;;;;;;;;;;;;;;;;4971717;28;19916;-87
2022/11/12 15:46:53;;;;;;;;;;;;;;;;;;4980431;28;20333;-89
2022/11/12 15:49:37;;;;;;;;;;;;;;;;;;4969371;28;20319;-89
2022/11/12 15:52:21;;;;;;;;;;;;;;;;;;4953963;28;20359;-89
2022/11/12 15:55:08;;;;;;;;;;;;;;;;;;4964256;28;19918;-88
2022/11/12 15:57:52;;;;;;;;;;;;;;;;;;4973089;28;19921;-79
2022/11/12 16:00:36;;;;;;;;;;;;;;;;;;4992835;28;20012;-80
2022/11/12 16:03:20;;;;;;;;;;;;;;;;;;4965933;28;20407;-79
2022/11/12 16:06:04;;;;;;;;;;;;;;;;;;4965087;28;20017;-79
2022/11/12 16:08:48;;;;;;;;;;;;;;;;;;4969249;28;20364;-80
2022/11/12 16:11:35;;;;;;;;;;;;;;;;;;4983313;28;20081;-80
2022/11/12 16:14:20;;;;;;;;;;;;;;;;;;4965722;28;19913;-87
2022/11/12 16:17:04;;;;;;;;;;;;;;;;;;4977271;28;19913;-88
2022/11/12 16:19:48;;;;;;;;;;;;;;;;;;4999008;28;19914;-90
2022/11/12 16:22:32;;;;;;;;;;;;;;;;;;4997201;28;19913;-88
2022/11/12 16:25:16;;;;;;;;;;;;;;;;;;4966046;28;19924;-88
2022/11/12 16:28:00;;;;;;;;;;;;;;;;;;4996277;28;19997;-88
2022/11/12 16:30:44;;;;;;;;;;;;;;;;;;4967096;28;19914;-88
2022/11/12 16:33:28;;;;;;;;;;;;;;;;;;4996415;28;19996;-89
2022/11/12 16:36:13;;;;;;;;;;;;;;;;;;4979467;28;20441;-89
2022/11/12 16:38:57;;;;;;;;;;;;;;;;;;4981265;28;20390;-88
2022/11/12 16:41:41;;;;;;;;;;;;;;;;;;4997047;28;19921;-88
2022/11/12 16:44:24;;;;;;;;;;;;;;;;;;4981471;28;19914;-89
2022/11/12 16:47:09;;;;;;;;;;;;;;;;;;4965887;28;19969;-88
2022/11/12 16:49:53;;;;;;;;;;;;;;;;;;4978577;28;19974;-89
2022/11/12 16:52:37;;;;;;;;;;;;;;;;;;4994339;28;19918;-89
2022/11/12 16:55:21;;;;;;;;;;;;;;;;;;4978749;28;19917;-88
2022/11/12 16:58:05;;;;;;;;;;;;;;;;;;4982107;28;19936;-90
2022/11/12 17:00:49;;;;;;;;;;;;;;;;;;4994485;28;19941;-91
2022/11/12 17:03:33;;;;;;;;;;;;;;;;;;4976001;28;19917;-90
2022/11/12 17:06:17;;;;;;;;;;;;;;;;;;4973110;28;19941;-90
2022/11/12 17:09:01;;;;;;;;;;;;;;;;;;4959943;28;20401;-88
2022/11/12 17:11:46;;;;;;;;;;;;;;;;;;4959741;28;19914;-90
2022/11/12 17:14:30;;;;;;;;;;;;;;;;;;4960643;28;20424;-89
2022/11/12 17:17:14;;;;;;;;;;;;;;;;;;4946369;28;19917;-91
2022/11/12 17:19:58;;;;;;;;;;;;;;;;;;4947043;28;19914;-90
2022/11/12 17:22:42;;;;;;;;;;;;;;;;;;4952432;28;19913;-89
2022/11/12 17:25:26;;;;;;;;;;;;;;;;;;4969145;28;19976;-90
2022/11/12 17:28:10;;;;;;;;;;;;;;;;;;4981039;28;19924;-90
2022/11/12 17:30:55;;;;;;;;;;;;;;;;;;4980516;28;19921;-91
2022/11/12 17:33:39;;;;;;;;;;;;;;;;;;4983720;28;19932;-90
2022/11/12 17:36:23;;;;;;;;;;;;;;;;;;4983138;28;19924;-91
2022/11/12 17:39:07;;;;;;;;;;;;;;;;;;4968418;28;19921;-90
2022/11/12 17:41:51;;;;;;;;;;;;;;;;;;4982032;28;19920;-90
2022/11/12 17:44:35;;;;;;;;;;;;;;;;;;4970952;28;20007;-90
2022/11/12 17:47:19;;;;;;;;;;;;;;;;;;5001431;28;19969;-88
2022/11/12 17:50:03;;;;;;;;;;;;;;;;;;5000013;28;19929;-90
2022/11/12 17:52:47;;;;;;;;;;;;;;;;;;4983959;28;19914;-90
2022/11/12 17:55:32;;;;;;;;;;;;;;;;;;5014904;28;19914;-89
2022/11/12 17:58:16;;;;;;;;;;;;;;;;;;4983204;28;19997;-89
2022/11/12 18:01:00;;;;;;;;;;;;;;;;;;4978405;28;20382;-90
2022/11/12 18:03:44;;;;;;;;;;;;;;;;;;4978651;28;19914;-90
2022/11/12 18:06:27;;;;;;;;;;;;;;;;;;4962314;28;19918;-90
2022/11/12 18:09:13;;;;;;;;;;;;;;;;;;4962448;28;20396;-89
2022/11/12 18:11:57;;;;;;;;;;;;;;;;;;4984791;28;19921;-88
2022/11/12 18:14:42;;;;;;;;;;;;;;;;;;4969009;28;20001;-91
2022/11/12 18:17:26;;;;;;;;;;;;;;;;;;5004785;28;20427;-88
2022/11/12 18:20:10;;;;;;;;;;;;;;;;;;5002795;28;19914;-89
2022/11/12 18:22:54;;;;;;;;;;;;;;;;;;4971163;28;19914;-89
2022/11/12 18:25:39;;;;;;;;;;;;;;;;;;4987476;28;19956;-91
2022/11/12 18:28:23;;;;;;;;;;;;;;;;;;4967733;28;19932;-90
2022/11/12 18:31:07;;;;;;;;;;;;;;;;;;4988412;28;19957;-89
2022/11/12 18:33:51;;;;;;;;;;;;;;;;;;4985361;28;19914;-90
2022/11/12 18:36:35;;;;;;;;;;;;;;;;;;5001708;28;19914;-91
2022/11/12 18:39:19;;;;;;;;;;;;;;;;;;4961752;28;19925;-91
2022/11/12 18:42:03;;;;;;;;;;;;;;;;;;4953210;28;19925;-91
2022/11/12 18:44:48;;;;;;;;;;;;;;;;;;4961435;28;19922;-89
2022/11/12 18:47:32;;;;;;;;;;;;;;;;;;4964931;28;19918;-91
2022/11/12 18:50:16;;;;;;;;;;;;;;;;;;4965819;28;19921;-85
2022/11/12 18:53:00;;;;;;;;;;;;;;;;;;4964436;28;19953;-79
2022/11/12 18:55:45;;;;;;;;;;;;;;;;;;4988135;28;20381;-81
2022/11/12 18:58:29;;;;;;;;;;;;;;;;;;4995983;28;20360;-79
2022/11/12 19:01:14;;;;;;;;;;;;;;;;;;4984988;28;19918;-93
2022/11/12 19:03:58;;;;;;;;;;;;;;;;;;4971161;28;19940;-92
2022/11/12 19:06:42;;;;;;;;;;;;;;;;;;4987812;28;19918;-90
2022/11/12 19:09:27;;;;;;;;;;;;;;;;;;4961003;28;19968;-92
2022/11/12 19:12:11;;;;;;;;;;;;;;;;;;4972085;28;19914;-92
2022/11/12 19:14:55;;;;;;;;;;;;;;;;;;4978888;28;19914;-91
2022/11/12 19:17:39;;;;;;;;;;;;;;;;;;4984206;28;19969;-91